NCAR-RAP Real-Time Weather Data

Output produced by METARs form (10 April 2020  06:20 UTC)
found at http://weather.rap.ucar.edu/surface/
 
KDAN 100553Z AUTO 29009KT 10SM CLR 12/M06 A2966 RMK AO2 SLP034 T01171056 10206 20117 50019